createdAt,value
2022-09-04T00:00:35.971Z,15.48
2022-09-04T00:03:28.999Z,18.40
2022-09-04T00:05:59.069Z,18.95
2022-09-04T00:09:07.022Z,17.17
2022-09-04T00:12:08.774Z,17.23
2022-09-04T00:14:51.266Z,16.13
2022-09-04T00:17:30.659Z,17.27
2022-09-04T00:20:07.184Z,16.65
2022-09-04T00:22:52.484Z,18.80
2022-09-04T00:25:32.089Z,17.27
2022-09-04T00:28:32.864Z,18.55
2022-09-04T00:31:29.147Z,15.90
2022-09-04T00:34:26.866Z,16.05
2022-09-04T00:37:01.411Z,20.13
2022-09-04T00:39:40.413Z,18.25
2022-09-04T00:42:25.989Z,16.75
2022-09-04T00:45:23.266Z,15.02
2022-09-04T00:48:16.770Z,15.93
2022-09-04T00:50:43.564Z,14.90
2022-09-04T00:53:42.626Z,15.18
2022-09-04T00:56:54.016Z,19.20
2022-09-04T01:00:14.625Z,20.00
2022-09-04T01:03:30.409Z,18.42
2022-09-04T01:06:21.457Z,19.23
2022-09-04T01:09:22.060Z,17.83
2022-09-04T01:12:07.855Z,18.27
2022-09-04T01:14:56.094Z,19.00
2022-09-04T01:17:47.839Z,19.02
2022-09-04T01:20:47.781Z,17.40
2022-09-04T01:24:02.793Z,15.73
2022-09-04T01:26:57.414Z,17.25
2022-09-04T01:30:09.790Z,18.67
2022-09-04T01:32:49.082Z,19.27
2022-09-04T01:35:35.258Z,20.35
2022-09-04T01:38:14.661Z,19.25
2022-09-04T01:40:47.022Z,20.05
2022-09-04T01:43:24.153Z,20.80
2022-09-04T01:46:44.817Z,20.42
2022-09-04T01:49:28.789Z,17.65
2022-09-04T01:52:16.769Z,15.65
2022-09-04T01:54:54.172Z,16.95
2022-09-04T01:57:59.401Z,16.42
2022-09-04T02:00:33.984Z,18.25
2022-09-04T02:03:29.040Z,18.73
2022-09-04T02:06:28.100Z,18.55
2022-09-04T02:09:12.022Z,19.08
2022-09-04T02:11:48.715Z,21.65
2022-09-04T02:14:36.123Z,21.73
2022-09-04T02:17:35.856Z,21.20
2022-09-04T02:20:30.913Z,22.23
2022-09-04T02:24:09.346Z,25.05
2022-09-04T02:27:00.096Z,23.70
2022-09-04T02:30:08.155Z,25.48
2022-09-04T02:33:36.894Z,25.30
2022-09-04T02:36:16.588Z,25.58
2022-09-04T02:39:14.009Z,24.15
2022-09-04T02:42:19.566Z,23.10
2022-09-04T02:45:27.506Z,21.63
2022-09-04T02:48:26.780Z,22.48
2022-09-04T02:51:13.858Z,22.35
2022-09-04T02:54:25.704Z,21.75
2022-09-04T02:57:17.581Z,22.27
2022-09-04T03:00:21.309Z,23.83
2022-09-04T03:03:07.128Z,23.88
2022-09-04T03:05:43.937Z,23.30
2022-09-04T03:08:36.360Z,24.00
2022-09-04T03:11:16.167Z,23.98
2022-09-04T03:14:07.312Z,24.33
2022-09-04T03:16:41.992Z,25.77
2022-09-04T03:19:45.890Z,26.40
2022-09-04T03:22:20.798Z,26.48
2022-09-04T03:25:11.015Z,26.50
2022-09-04T03:27:38.102Z,28.13
2022-09-04T03:30:12.008Z,25.55
2022-09-04T03:32:38.821Z,25.67
2022-09-04T03:35:36.077Z,27.85
2022-09-04T03:39:04.603Z,28.95
2022-09-04T03:42:05.099Z,27.83
2022-09-04T03:44:43.831Z,28.50
2022-09-04T03:47:31.614Z,27.48
2022-09-04T03:50:22.613Z,29.02
2022-09-04T03:53:41.392Z,29.13
2022-09-04T03:56:36.823Z,27.80
2022-09-04T03:59:25.296Z,29.80
2022-09-04T04:02:24.672Z,28.13
2022-09-04T04:05:48.199Z,28.52
2022-09-04T04:08:42.885Z,38.78
2022-09-04T04:11:19.722Z,38.65
2022-09-04T04:14:37.614Z,37.20
2022-09-04T04:17:20.641Z,39.70
2022-09-04T04:19:53.616Z,43.58
2022-09-04T04:22:33.206Z,43.40
2022-09-04T04:25:17.550Z,45.38
2022-09-04T04:27:59.131Z,44.38
2022-09-04T04:30:58.040Z,42.17
2022-09-04T04:33:43.495Z,43.75
2022-09-04T04:36:43.261Z,42.97
2022-09-04T04:39:42.126Z,47.40
2022-09-04T04:42:36.080Z,49.50
2022-09-04T04:45:45.228Z,48.63
2022-09-04T04:49:01.166Z,52.72
2022-09-04T04:52:07.329Z,53.10
2022-09-04T04:55:06.584Z,56.53
2022-09-04T04:58:14.487Z,58.25
2022-09-04T05:00:53.399Z,60.38
2022-09-04T05:03:35.058Z,58.25
2022-09-04T05:06:31.851Z,63.03
2022-09-04T05:09:25.376Z,58.20
2022-09-04T05:12:28.150Z,55.88
2022-09-04T05:15:18.283Z,59.83
2022-09-04T05:18:31.491Z,57.63
2022-09-04T05:21:16.494Z,61.38
2022-09-04T05:24:06.239Z,54.70
2022-09-04T05:26:36.116Z,56.30
2022-09-04T05:29:35.300Z,57.28
2022-09-04T05:32:27.424Z,55.25
2022-09-04T05:35:20.715Z,54.35
2022-09-04T05:38:30.893Z,55.22
2022-09-04T05:41:39.160Z,57.55
2022-09-04T05:44:31.245Z,55.53
2022-09-04T05:47:33.511Z,55.22
2022-09-04T05:50:30.957Z,53.95
2022-09-04T05:53:06.225Z,55.85
2022-09-04T05:56:19.215Z,61.33
2022-09-04T05:59:50.126Z,58.42
2022-09-04T06:02:37.925Z,54.55
2022-09-04T06:05:21.361Z,54.35
2022-09-04T06:08:32.809Z,56.92
2022-09-04T06:11:41.290Z,54.72
2022-09-04T06:14:56.099Z,52.38
2022-09-04T06:17:53.630Z,55.22
2022-09-04T06:20:51.252Z,51.80
2022-09-04T06:23:54.209Z,52.80
2022-09-04T06:26:52.808Z,53.72
2022-09-04T06:29:57.769Z,49.10
2022-09-04T06:32:49.301Z,46.00
2022-09-04T06:35:55.057Z,48.40
2022-09-04T06:38:44.561Z,46.53
2022-09-04T06:41:38.905Z,42.60
2022-09-04T06:44:50.972Z,39.15
2022-09-04T06:47:34.825Z,37.05
2022-09-04T06:50:06.091Z,35.70
2022-09-04T06:53:18.177Z,34.72
2022-09-04T06:56:13.077Z,33.70
2022-09-04T06:59:10.734Z,31.70
2022-09-04T07:02:03.655Z,28.30
2022-09-04T07:04:55.248Z,28.02
2022-09-04T07:07:45.246Z,24.33
2022-09-04T07:10:26.716Z,25.05
2022-09-04T07:13:23.529Z,26.35
2022-09-04T07:16:14.155Z,26.23
2022-09-04T07:19:15.566Z,26.60
2022-09-04T07:22:31.427Z,25.20
2022-09-04T07:25:36.900Z,23.58
2022-09-04T07:28:31.889Z,22.40
2022-09-04T07:31:20.522Z,22.98
2022-09-04T07:34:02.307Z,21.83
2022-09-04T07:36:49.419Z,21.75
2022-09-04T07:39:43.354Z,19.05
2022-09-04T07:42:15.834Z,18.30
2022-09-04T07:45:17.195Z,17.30
2022-09-04T07:47:55.224Z,12.85
2022-09-04T07:51:04.809Z,11.00
2022-09-04T07:54:07.508Z,9.98
2022-09-04T07:57:01.920Z,11.07
2022-09-04T07:59:38.419Z,11.15
2022-09-04T08:02:41.025Z,11.30
2022-09-04T08:05:25.069Z,9.98
2022-09-04T08:08:28.442Z,10.07
2022-09-04T08:11:33.653Z,10.00
2022-09-04T08:14:24.803Z,8.63
2022-09-04T08:17:24.469Z,7.47
2022-09-04T08:20:12.591Z,7.95
2022-09-04T08:23:18.950Z,6.53
2022-09-04T08:26:19.579Z,6.88
2022-09-04T08:29:24.172Z,6.05
2022-09-04T08:32:18.764Z,6.15
2022-09-04T08:35:31.776Z,5.35
2022-09-04T08:38:32.844Z,4.88
2022-09-04T08:41:07.833Z,4.88
2022-09-04T08:44:38.648Z,4.97
2022-09-04T08:47:52.789Z,4.78
2022-09-04T08:50:40.266Z,5.07
2022-09-04T08:53:44.367Z,5.03
2022-09-04T08:56:47.281Z,4.45
2022-09-04T08:59:52.757Z,4.35
2022-09-04T09:02:50.637Z,4.38
2022-09-04T09:05:49.720Z,4.18
2022-09-04T09:08:55.281Z,4.05
2022-09-04T09:11:34.091Z,2.38
2022-09-04T09:14:12.850Z,2.67
2022-09-04T09:17:13.104Z,2.78
2022-09-04T09:20:00.592Z,2.28
2022-09-04T09:22:47.535Z,3.00
2022-09-04T09:25:40.972Z,2.72
2022-09-04T09:28:45.183Z,2.95
2022-09-04T09:32:07.258Z,3.40
2022-09-04T09:35:08.742Z,2.75
2022-09-04T09:38:15.802Z,2.83
2022-09-04T09:41:05.231Z,2.80
2022-09-04T09:44:11.949Z,2.42
2022-09-04T09:46:47.522Z,2.20
2022-09-04T09:50:00.630Z,2.10
2022-09-04T09:53:07.125Z,2.22
2022-09-04T09:55:57.288Z,2.03
2022-09-04T09:59:30.878Z,2.10
2022-09-04T10:02:23.789Z,2.10
2022-09-04T10:05:48.202Z,2.20
2022-09-04T10:09:11.442Z,2.25
2022-09-04T10:11:56.327Z,2.08
2022-09-04T10:14:54.128Z,1.80
2022-09-04T10:18:13.670Z,1.88
2022-09-04T10:21:14.687Z,2.10
2022-09-04T10:24:07.142Z,1.88
2022-09-04T10:27:21.236Z,2.10
2022-09-04T10:30:02.607Z,2.10
2022-09-04T10:32:33.145Z,1.60
2022-09-04T10:35:20.899Z,1.60
2022-09-04T10:38:18.493Z,2.13
2022-09-04T10:41:35.319Z,1.88
2022-09-04T10:44:17.692Z,1.90
2022-09-04T10:47:00.316Z,2.20
2022-09-04T10:49:55.421Z,2.28
2022-09-04T10:52:53.647Z,2.30
2022-09-04T10:56:05.587Z,2.20
2022-09-04T10:58:48.737Z,2.70
2022-09-04T11:01:44.716Z,2.40
2022-09-04T11:04:59.897Z,2.53
2022-09-04T11:07:55.830Z,2.97
2022-09-04T11:10:54.225Z,2.90
2022-09-04T11:14:03.731Z,2.60
2022-09-04T11:17:00.474Z,2.33
2022-09-04T11:19:47.509Z,2.60
2022-09-04T11:22:51.207Z,2.90
2022-09-04T11:25:46.024Z,2.50
2022-09-04T11:28:57.781Z,2.35
2022-09-04T11:31:48.484Z,2.30
2022-09-04T11:34:33.160Z,2.30
2022-09-04T11:37:48.412Z,2.53
2022-09-04T11:41:17.473Z,2.50
2022-09-04T11:44:19.626Z,2.75
2022-09-04T11:47:28.424Z,2.58
2022-09-04T11:50:19.083Z,2.90
2022-09-04T11:52:58.142Z,2.65
2022-09-04T11:55:41.648Z,2.97
2022-09-04T11:58:36.644Z,2.47
2022-09-04T12:01:55.649Z,2.80
2022-09-04T12:04:48.207Z,2.83
2022-09-04T12:07:43.538Z,3.10
2022-09-04T12:11:08.406Z,2.60
2022-09-04T12:14:21.291Z,1.73
2022-09-04T12:17:36.387Z,2.75
2022-09-04T12:20:25.708Z,2.42
2022-09-04T12:23:11.539Z,2.30
2022-09-04T12:25:48.153Z,2.30
2022-09-04T12:28:46.238Z,2.50
2022-09-04T12:31:51.617Z,2.13
2022-09-04T12:35:14.209Z,2.22
2022-09-04T12:38:14.171Z,1.73
2022-09-04T12:41:16.570Z,1.80
2022-09-04T12:44:38.646Z,1.90
2022-09-04T12:47:24.046Z,1.75
2022-09-04T12:50:10.776Z,1.95
2022-09-04T12:53:19.247Z,1.98
2022-09-04T12:56:07.110Z,2.17
2022-09-04T12:59:06.859Z,1.70
2022-09-04T13:02:07.325Z,2.17
2022-09-04T13:04:49.418Z,1.55
2022-09-04T13:07:52.638Z,1.65
2022-09-04T13:10:37.872Z,1.40
2022-09-04T13:13:12.925Z,1.60
2022-09-04T13:15:54.112Z,1.60
2022-09-04T13:18:44.309Z,1.70
2022-09-04T13:21:51.549Z,1.50
2022-09-04T13:24:44.457Z,1.60
2022-09-04T13:27:43.482Z,1.42
2022-09-04T13:30:22.050Z,1.58
2022-09-04T13:33:19.406Z,1.45
2022-09-04T13:36:35.258Z,1.52
2022-09-04T13:39:44.888Z,1.40
2022-09-04T13:42:37.472Z,1.40
2022-09-04T13:45:23.686Z,1.40
2022-09-04T13:48:32.635Z,1.40
2022-09-04T13:51:13.331Z,1.45
2022-09-04T13:54:20.657Z,1.40
2022-09-04T13:57:11.977Z,1.20
2022-09-04T13:59:40.880Z,1.38
2022-09-04T14:02:14.358Z,1.10
2022-09-04T14:04:50.820Z,1.33
2022-09-04T14:07:44.704Z,1.23
2022-09-04T14:10:22.612Z,1.10
2022-09-04T14:13:51.956Z,1.40
2022-09-04T14:16:19.748Z,1.30
2022-09-04T14:19:43.390Z,1.33
2022-09-04T14:22:27.983Z,1.65
2022-09-04T14:25:11.921Z,1.67
2022-09-04T14:28:20.689Z,1.30
2022-09-04T14:31:17.942Z,1.33
2022-09-04T14:34:16.049Z,1.42
2022-09-04T14:37:08.597Z,1.48
2022-09-04T14:39:58.622Z,1.50
2022-09-04T14:42:58.384Z,1.52
2022-09-04T14:46:06.778Z,1.33
2022-09-04T14:48:44.550Z,1.40
2022-09-04T14:51:35.112Z,1.30
2022-09-04T14:54:03.685Z,1.45
2022-09-04T14:56:49.423Z,1.63
2022-09-04T14:59:31.560Z,1.40
2022-09-04T15:02:10.545Z,1.50
2022-09-04T15:05:01.364Z,1.30
2022-09-04T15:07:54.059Z,1.73
2022-09-04T15:10:57.253Z,1.35
2022-09-04T15:13:53.859Z,1.33
2022-09-04T15:16:29.577Z,1.40
2022-09-04T15:19:20.071Z,1.35
2022-09-04T15:22:07.183Z,1.17
2022-09-04T15:24:53.483Z,1.30
2022-09-04T15:28:01.184Z,1.38
2022-09-04T15:30:42.526Z,1.20
2022-09-04T15:33:18.542Z,1.30
2022-09-04T15:36:23.145Z,1.52
2022-09-04T15:38:59.152Z,1.35
2022-09-04T15:41:50.242Z,1.20
2022-09-04T15:44:34.299Z,1.33
2022-09-04T15:47:42.622Z,1.45
2022-09-04T15:50:28.035Z,1.40
2022-09-04T15:53:27.194Z,1.40
2022-09-04T15:56:16.991Z,1.60
2022-09-04T15:59:12.122Z,1.30
2022-09-04T16:01:53.241Z,1.20
2022-09-04T16:04:37.759Z,1.27
2022-09-04T16:07:34.320Z,1.35
2022-09-04T16:10:12.215Z,1.38
2022-09-04T16:13:29.151Z,1.50
2022-09-04T16:16:44.546Z,1.65
2022-09-04T16:19:26.537Z,1.65
2022-09-04T16:22:18.786Z,1.50
2022-09-04T16:24:50.973Z,1.60
2022-09-04T16:27:24.459Z,1.30
2022-09-04T16:30:05.499Z,1.33
2022-09-04T16:32:35.429Z,1.27
2022-09-04T16:35:21.317Z,1.65
2022-09-04T16:38:29.653Z,1.77
2022-09-04T16:41:02.448Z,1.42
2022-09-04T16:43:34.167Z,1.30
2022-09-04T16:46:14.935Z,1.45
2022-09-04T16:49:07.625Z,1.63
2022-09-04T16:51:51.385Z,1.50
2022-09-04T16:54:47.337Z,1.88
2022-09-04T16:57:17.291Z,1.40
2022-09-04T17:00:01.093Z,1.30
2022-09-04T17:03:01.165Z,1.50
2022-09-04T17:05:46.051Z,1.40
2022-09-04T17:08:25.425Z,1.40
2022-09-04T17:11:17.879Z,1.52
2022-09-04T17:14:08.944Z,1.50
2022-09-04T17:16:54.071Z,1.60
2022-09-04T17:19:21.993Z,1.70
2022-09-04T17:29:04.760Z,1.50
2022-09-04T17:29:10.112Z,1.75
2022-09-04T17:29:14.606Z,1.50
2022-09-04T17:31:53.383Z,1.52
2022-09-04T17:40:34.778Z,1.20
2022-09-04T17:40:36.079Z,1.40
2022-09-04T17:41:34.474Z,1.30
2022-09-04T17:43:59.791Z,1.33
2022-09-04T17:46:47.077Z,1.73
2022-09-04T17:49:21.937Z,1.63
2022-09-04T17:52:01.686Z,1.50
2022-09-04T17:54:33.410Z,1.45
2022-09-04T17:57:06.526Z,1.50
2022-09-04T17:59:53.114Z,1.40
2022-09-04T18:02:35.266Z,1.60
2022-09-04T18:05:14.807Z,1.23
2022-09-04T18:08:07.245Z,1.70
2022-09-04T18:11:13.757Z,1.60
2022-09-04T18:14:13.587Z,1.40
2022-09-04T18:17:12.116Z,1.30
2022-09-04T18:19:49.980Z,1.60
2022-09-04T18:22:44.932Z,1.60
2022-09-04T18:25:30.880Z,1.50
2022-09-04T18:28:11.379Z,1.80
2022-09-04T18:37:11.952Z,3.10
2022-09-04T18:37:23.207Z,3.22
2022-09-04T18:37:46.558Z,2.40
2022-09-04T18:41:06.617Z,4.93
2022-09-04T18:50:25.239Z,3.90
2022-09-04T18:50:28.113Z,2.03
2022-09-04T18:50:45.857Z,1.50
2022-09-04T18:52:03.569Z,1.77
2022-09-04T18:54:41.709Z,1.80
2022-09-04T18:57:48.151Z,1.75
2022-09-04T19:00:36.644Z,1.58
2022-09-04T19:03:25.717Z,1.70
2022-09-04T19:05:59.776Z,1.75
2022-09-04T19:08:37.851Z,1.50
2022-09-04T19:11:21.669Z,1.70
2022-09-04T19:14:10.257Z,1.50
2022-09-04T19:16:52.161Z,1.77
2022-09-04T19:19:37.922Z,2.00
2022-09-04T19:22:28.298Z,1.88
2022-09-04T19:25:28.696Z,1.85
2022-09-04T19:28:07.310Z,1.98
2022-09-04T19:31:00.661Z,2.15
2022-09-04T19:33:39.531Z,2.00
2022-09-04T19:36:21.005Z,2.00
2022-09-04T19:46:04.309Z,2.33
2022-09-04T19:46:05.762Z,2.00
2022-09-04T19:46:26.266Z,2.10
2022-09-04T19:53:17.607Z,2.17
2022-09-04T19:53:32.087Z,2.20
2022-09-04T19:55:39.415Z,2.25
2022-09-04T19:58:13.990Z,2.10
2022-09-04T20:01:03.474Z,2.15
2022-09-04T20:03:47.122Z,2.03
2022-09-04T20:06:22.273Z,1.80
2022-09-04T20:08:58.454Z,2.17
2022-09-04T20:11:36.586Z,2.20
2022-09-04T20:14:24.396Z,2.40
2022-09-04T20:17:03.802Z,1.92
2022-09-04T20:19:46.174Z,2.00
2022-09-04T20:22:45.321Z,2.30
2022-09-04T20:25:53.374Z,2.47
2022-09-04T20:29:08.749Z,2.45
2022-09-04T20:31:46.402Z,2.97
2022-09-04T20:34:38.472Z,2.10
2022-09-04T20:37:28.640Z,2.17
2022-09-04T20:40:27.141Z,2.70
2022-09-04T20:43:03.210Z,2.50
2022-09-04T20:51:15.554Z,2.53
2022-09-04T20:52:54.192Z,2.70
2022-09-04T20:53:00.199Z,2.55
2022-09-04T20:55:56.638Z,2.70
2022-09-04T21:03:14.759Z,2.33
2022-09-04T21:03:20.862Z,2.45
2022-09-04T21:04:47.433Z,2.20
2022-09-04T21:07:39.782Z,2.20
2022-09-04T21:10:24.642Z,3.10
2022-09-04T21:13:13.545Z,2.47
2022-09-04T21:16:13.541Z,2.17
2022-09-04T21:19:29.012Z,2.33
2022-09-04T21:22:35.968Z,2.30
2022-09-04T21:25:41.280Z,2.38
2022-09-04T21:28:33.641Z,2.50
2022-09-04T21:31:25.624Z,2.25
2022-09-04T21:34:43.773Z,2.38
2022-09-04T21:37:41.860Z,2.50
2022-09-04T21:40:50.774Z,2.25
2022-09-04T21:43:59.070Z,2.30
2022-09-04T21:46:58.242Z,2.30
2022-09-04T21:50:14.093Z,2.40
2022-09-04T21:53:10.783Z,2.50
2022-09-04T22:00:09.367Z,2.83
2022-09-04T22:02:39.334Z,2.22
2022-09-04T22:02:51.449Z,2.40
2022-09-04T22:06:11.274Z,2.10
2022-09-04T22:13:26.766Z,2.70
2022-09-04T22:13:40.857Z,2.70
2022-09-04T22:14:56.599Z,2.40
2022-09-04T22:18:12.983Z,2.40
2022-09-04T22:21:03.985Z,2.50
2022-09-04T22:24:06.344Z,2.53
2022-09-04T22:27:23.133Z,2.65
2022-09-04T22:30:10.352Z,2.55
2022-09-04T22:33:26.565Z,2.38
2022-09-04T22:36:13.467Z,2.10
2022-09-04T22:39:43.078Z,2.22
2022-09-04T22:42:37.144Z,2.92
2022-09-04T22:45:59.559Z,2.50
2022-09-04T22:49:12.394Z,2.45
2022-09-04T22:52:00.826Z,2.65
2022-09-04T22:55:38.365Z,2.42
2022-09-04T22:58:45.084Z,2.38
2022-09-04T23:01:44.840Z,2.60
2022-09-04T23:04:49.114Z,2.85
2022-09-04T23:13:42.930Z,2.88
2022-09-04T23:13:58.661Z,2.50
2022-09-04T23:14:32.405Z,2.55
2022-09-04T23:17:36.826Z,2.40
2022-09-04T23:26:34.383Z,2.53
2022-09-04T23:26:48.843Z,2.28
2022-09-04T23:27:09.603Z,2.35
2022-09-04T23:30:11.781Z,2.72
2022-09-04T23:32:38.914Z,2.40
2022-09-04T23:35:27.023Z,2.20
2022-09-04T23:38:50.024Z,2.00
2022-09-04T23:41:54.016Z,2.20
2022-09-04T23:45:08.932Z,1.90
2022-09-04T23:48:03.933Z,2.28
2022-09-04T23:50:47.350Z,2.15
2022-09-04T23:53:49.230Z,2.72
2022-09-04T23:56:27.356Z,1.98
2022-09-04T23:59:36.488Z,2.58
